Terminal Aerodrome Forecast
Issued by NWS Charleston, SC

Home | Current Version | Previous Version | Text Only | Print | Product List | Glossary On
Versions: 1 2 3 4 5 6 7 8 9 10 11 12 13 14
000
FTUS42 KCHS 272321
TAFSAV
TAF
KSAV 272321Z 2800/2824 10008KT P6SM SKC
     FM280300 VRB03KT P6SM SKC
     FM281400 02008KT P6SM SCT040
     FM282100 02012KT P6SM SCT035 SCT080=

USA.gov is the U.S. government's official web portal to all federal, state and local government web resources and services.